Time;durP1;ratioP1;P1;durP2;ratioP2;P2;SDS_P1;SDS_P2;PMS_P1;PMS_P2;Temp;Humidity;BMP_temperature;BMP_pressure;BME280_temperature;BME280_humidity;BME280_pressure;Samples;Min_cycle;Max_cycle;Signal;HPM_P1;HPM_P2
2022/10/10 00:00:40;;;;;;;8.38;5.10;;;;;;;1.54;100.00;98837.75;4186018;28;20701;-70
2022/10/10 00:02:41;;;;;;;6.75;4.47;;;;;;;1.51;100.00;98841.09;4186000;28;20118;-70
2022/10/10 00:04:41;;;;;;;8.40;4.97;;;;;;;1.51;100.00;98825.53;4185511;28;20767;-70
2022/10/10 00:06:42;;;;;;;6.90;4.97;;;;;;;1.54;100.00;98830.34;4185559;28;20190;-70
2022/10/10 00:08:43;;;;;;;5.90;4.32;;;;;;;1.58;100.00;98830.56;4185473;28;20111;-70
2022/10/10 00:10:43;;;;;;;5.78;4.20;;;;;;;1.66;100.00;98833.34;4185584;28;20051;-70
2022/10/10 00:12:44;;;;;;;8.45;5.15;;;;;;;1.64;100.00;98830.09;4184972;28;20032;-70
2022/10/10 00:14:44;;;;;;;5.68;3.90;;;;;;;1.65;100.00;98823.53;4184623;28;20503;-70
2022/10/10 00:16:44;;;;;;;6.50;4.35;;;;;;;1.63;100.00;98824.97;4184760;28;20403;-70
2022/10/10 00:18:45;;;;;;;6.63;4.68;;;;;;;1.59;100.00;98830.25;4184188;28;20510;-70
2022/10/10 00:20:46;;;;;;;6.85;4.90;;;;;;;1.56;100.00;98827.31;4185112;28;20120;-70
2022/10/10 00:22:47;;;;;;;7.60;4.85;;;;;;;1.50;100.00;98817.66;4185023;28;20072;-70
2022/10/10 00:24:47;;;;;;;6.88;4.30;;;;;;;1.51;100.00;98817.34;4184359;28;20040;-70
2022/10/10 00:26:47;;;;;;;9.38;4.85;;;;;;;1.56;100.00;98819.94;4184337;28;20052;-70
2022/10/10 00:28:48;;;;;;;6.60;4.40;;;;;;;1.56;100.00;98821.88;4184766;28;20052;-70
2022/10/10 00:30:48;;;;;;;5.38;4.00;;;;;;;1.55;100.00;98809.34;4183883;28;20036;-70
2022/10/10 00:32:48;;;;;;;8.30;4.93;;;;;;;1.55;100.00;98812.06;4184638;28;20066;-70
2022/10/10 00:34:49;;;;;;;6.65;4.60;;;;;;;1.50;100.00;98806.75;4185865;28;20450;-70
2022/10/10 00:36:49;;;;;;;7.80;4.70;;;;;;;1.49;100.00;98810.59;4184466;28;20044;-70
2022/10/10 00:38:50;;;;;;;6.70;4.47;;;;;;;1.48;100.00;98809.78;4185241;28;20093;-70
2022/10/10 00:40:54;;;;;;;9.77;4.88;;;;;;;1.60;100.00;98811.97;4187150;28;20054;-70
2022/10/10 00:42:55;;;;;;;6.55;4.40;;;;;;;1.67;100.00;98813.13;4187662;28;20480;-70
2022/10/10 00:45:23;;;;;;;6.40;4.45;;;;;;;1.79;100.00;98809.03;4187200;28;20067;-70
2022/10/10 00:47:23;;;;;;;10.10;4.90;;;;;;;1.82;100.00;98802.94;4187302;28;20067;-70
2022/10/10 00:49:28;;;;;;;7.20;4.75;;;;;;;1.86;100.00;98804.72;4186792;28;20492;-70
2022/10/10 00:51:28;;;;;;;5.82;4.47;;;;;;;1.88;100.00;98796.22;4186252;28;20052;-70
2022/10/10 00:53:33;;;;;;;7.72;4.55;;;;;;;1.83;100.00;98782.75;4187710;28;20419;-70
2022/10/10 00:55:35;;;;;;;7.97;5.00;;;;;;;1.81;100.00;98784.94;4186332;28;20419;-70
2022/10/10 00:57:35;;;;;;;8.57;4.80;;;;;;;1.82;100.00;98779.22;4187180;28;20071;-70
2022/10/10 00:59:37;;;;;;;9.23;4.60;;;;;;;1.81;100.00;98788.47;4186766;28;20049;-70
2022/10/10 01:01:39;;;;;;;6.95;4.25;;;;;;;1.83;100.00;98786.28;4186932;28;20047;-70
2022/10/10 01:03:40;;;;;;;9.88;5.30;;;;;;;1.84;100.00;98771.50;4187362;28;20134;-70
2022/10/10 01:05:41;;;;;;;8.63;4.90;;;;;;;1.89;100.00;98776.00;4186843;28;20033;-70
2022/10/10 01:07:43;;;;;;;10.07;4.60;;;;;;;1.89;100.00;98767.81;4187327;28;20065;-70
2022/10/10 01:09:46;;;;;;;7.72;4.25;;;;;;;1.88;100.00;98767.03;4186311;28;20086;-70
2022/10/10 01:14:20;;;;;;;6.90;3.97;;;;;;;1.99;100.00;98764.84;4182153;28;20402;-70
2022/10/10 01:16:26;;;;;;;7.32;4.35;;;;;;;2.04;100.00;98764.69;4153666;28;20040;-71
2022/10/10 01:19:10;;;;;;;7.07;4.28;;;;;;;2.09;100.00;98761.81;4153109;28;20054;-70
2022/10/10 01:21:34;;;;;;;6.88;4.07;;;;;;;2.14;100.00;98750.75;4115061;28;20172;-70
2022/10/10 01:24:13;;;;;;;9.40;4.35;;;;;;;2.21;100.00;98748.38;4153932;28;20100;-70
2022/10/10 01:26:33;;;;;;;7.50;4.53;;;;;;;2.29;100.00;98751.44;4130864;28;20046;-71
2022/10/10 01:28:49;;;;;;;6.88;3.95;;;;;;;2.36;100.00;98752.59;4130026;28;20050;-70
2022/10/10 01:30:50;;;;;;;8.60;4.10;;;;;;;2.42;100.00;98748.59;4142518;28;20076;-70
2022/10/10 01:33:00;;;;;;;6.45;4.40;;;;;;;2.45;100.00;98744.41;4168401;28;20052;-70
2022/10/10 01:35:11;;;;;;;6.82;4.55;;;;;;;2.45;100.00;98747.16;4169757;28;20466;-70
2022/10/10 01:37:21;;;;;;;8.23;4.50;;;;;;;2.45;100.00;98747.16;4169111;28;20256;-70
2022/10/10 01:39:46;;;;;;;6.82;4.28;;;;;;;2.48;100.00;98741.03;4170276;28;20489;-70
2022/10/10 01:41:52;;;;;;;6.18;3.55;;;;;;;2.51;100.00;98743.16;4169663;28;20436;-70
2022/10/10 01:43:55;;;;;;;6.88;4.65;;;;;;;2.55;100.00;98738.66;4170597;28;20048;-70
2022/10/10 01:45:55;;;;;;;8.55;5.05;;;;;;;2.59;100.00;98738.84;4169357;28;20052;-70
2022/10/10 01:48:00;;;;;;;9.52;4.53;;;;;;;2.61;100.00;98737.38;4168792;28;20196;-70
2022/10/10 01:50:06;;;;;;;8.30;4.38;;;;;;;2.62;100.00;98738.19;4167953;28;20037;-70
2022/10/10 01:52:47;;;;;;;8.13;3.95;;;;;;;2.65;100.00;98734.81;4167048;28;20044;-70
2022/10/10 01:54:53;;;;;;;6.93;3.97;;;;;;;2.68;100.00;98739.66;4168822;28;20061;-70
2022/10/10 01:57:22;;;;;;;7.55;4.30;;;;;;;2.70;100.00;98734.66;4168793;28;20080;-70
2022/10/10 01:59:48;;;;;;;7.82;4.32;;;;;;;2.72;100.00;98735.13;4168964;28;20279;-70
2022/10/10 02:01:54;;;;;;;5.40;3.70;;;;;;;2.74;100.00;98728.25;4169420;28;20135;-70
2022/10/10 02:04:26;;;;;;;7.53;4.90;;;;;;;2.68;100.00;98726.78;4168263;28;20079;-70
2022/10/10 02:06:47;;;;;;;7.47;4.38;;;;;;;2.74;100.00;98724.72;4159903;28;20797;-70
2022/10/10 02:08:54;;;;;;;10.15;4.38;;;;;;;2.77;100.00;98727.59;4167643;28;20436;-70
2022/10/10 02:10:59;;;;;;;10.60;4.10;;;;;;;2.78;100.00;98721.00;4168449;28;20076;-70
2022/10/10 02:13:02;;;;;;;7.07;4.65;;;;;;;2.81;100.00;98714.09;4167852;28;20353;-70
2022/10/10 02:15:11;;;;;;;9.35;4.90;;;;;;;2.85;100.00;98712.34;4169124;28;20360;-70
2022/10/10 02:17:14;;;;;;;6.15;4.20;;;;;;;2.86;100.00;98708.47;4167952;28;20123;-70
2022/10/10 02:19:18;;;;;;;6.13;4.40;;;;;;;2.88;100.00;98706.22;4168310;28;20112;-70
2022/10/10 02:21:20;;;;;;;9.13;5.03;;;;;;;2.96;100.00;98701.88;4167663;28;20188;-70
2022/10/10 02:23:21;;;;;;;10.10;4.78;;;;;;;2.96;100.00;98704.59;4168365;28;20045;-70
2022/10/10 02:25:28;;;;;;;8.68;5.28;;;;;;;2.94;100.00;98695.94;4163195;28;20044;-70
2022/10/10 02:27:42;;;;;;;12.82;5.53;;;;;;;2.96;100.00;98702.69;4157743;28;20202;-70
2022/10/10 02:29:44;;;;;;;10.38;5.60;;;;;;;2.92;100.00;98695.47;4155994;28;20049;-70
2022/10/10 02:31:57;;;;;;;9.23;6.00;;;;;;;2.92;100.00;98693.53;4156031;28;20044;-70
2022/10/10 02:34:11;;;;;;;9.48;5.07;;;;;;;2.91;100.00;98697.38;4158120;28;20505;-70
2022/10/10 02:36:14;;;;;;;13.80;5.82;;;;;;;2.92;100.00;98700.94;4159261;28;20622;-70
2022/10/10 02:38:16;;;;;;;6.93;5.50;;;;;;;2.92;100.00;98692.72;4156751;28;20053;-70
2022/10/10 02:40:21;;;;;;;12.32;6.57;;;;;;;2.90;100.00;98694.97;4156664;28;20030;-70
2022/10/10 02:42:23;;;;;;;11.30;6.50;;;;;;;2.93;100.00;98694.31;4158551;28;20049;-70
2022/10/10 02:44:24;;;;;;;9.70;6.30;;;;;;;2.92;100.00;98690.78;4156881;28;20034;-70
2022/10/10 02:46:25;;;;;;;9.30;5.75;;;;;;;2.90;100.00;98686.78;4157354;28;20057;-70
2022/10/10 02:48:25;;;;;;;8.27;5.07;;;;;;;2.87;100.00;98682.75;4156127;28;21145;-70
2022/10/10 02:50:27;;;;;;;6.88;5.10;;;;;;;2.86;100.00;98688.53;4161836;28;20083;-70
2022/10/10 02:52:28;;;;;;;7.15;4.88;;;;;;;2.88;100.00;98683.56;4156014;28;20048;-70
2022/10/10 02:54:28;;;;;;;8.07;4.95;;;;;;;2.88;100.00;98678.88;4157592;28;20044;-70
2022/10/10 02:56:28;;;;;;;7.13;4.93;;;;;;;2.89;100.00;98672.28;4157029;28;20045;-70
2022/10/10 02:58:29;;;;;;;6.32;4.47;;;;;;;2.89;100.00;98674.22;4156022;28;20037;-70
2022/10/10 03:00:30;;;;;;;6.75;4.65;;;;;;;2.84;100.00;98667.00;4157268;28;20045;-70
2022/10/10 03:02:30;;;;;;;6.75;4.43;;;;;;;2.86;100.00;98667.47;4156197;28;20042;-70
2022/10/10 03:04:31;;;;;;;7.25;4.78;;;;;;;2.85;100.00;98663.16;4157747;28;20045;-70
2022/10/10 03:06:31;;;;;;;6.93;4.55;;;;;;;2.86;100.00;98662.00;4155718;28;20045;-71
2022/10/10 03:08:32;;;;;;;5.22;3.70;;;;;;;2.85;100.00;98663.16;4155735;28;20076;-70
2022/10/10 03:10:32;;;;;;;7.90;4.47;;;;;;;2.87;100.00;98665.53;4157033;28;20300;-71
2022/10/10 03:12:34;;;;;;;6.72;4.55;;;;;;;2.85;100.00;98654.94;4155816;28;20049;-71
2022/10/10 03:14:34;;;;;;;5.80;4.38;;;;;;;2.85;100.00;98654.94;4157547;28;20417;-70
2022/10/10 03:16:35;;;;;;;9.90;5.30;;;;;;;2.90;100.00;98665.72;4156035;28;20115;-71
2022/10/10 03:18:35;;;;;;;7.28;4.72;;;;;;;2.90;100.00;98660.25;4158331;28;20036;-70
2022/10/10 03:20:35;;;;;;;6.70;4.70;;;;;;;2.94;100.00;98654.94;4157036;28;20049;-70
2022/10/10 03:22:36;;;;;;;7.55;5.10;;;;;;;2.94;100.00;98655.72;4155395;28;20050;-71
2022/10/10 03:24:36;;;;;;;8.85;5.18;;;;;;;2.95;100.00;98660.06;4157856;28;20493;-70
2022/10/10 03:26:36;;;;;;;6.53;4.68;;;;;;;2.99;100.00;98654.78;4155468;28;20045;-70
2022/10/10 03:28:37;;;;;;;5.57;4.10;;;;;;;2.99;100.00;98654.78;4155106;28;20436;-70
2022/10/10 03:30:38;;;;;;;7.32;5.07;;;;;;;3.02;100.00;98654.94;4156509;28;20124;-71
2022/10/10 03:32:38;;;;;;;6.32;4.05;;;;;;;3.01;100.00;98653.31;4155701;28;20130;-71
2022/10/10 03:34:38;;;;;;;7.82;5.03;;;;;;;3.08;100.00;98652.84;4156903;28;20079;-70
2022/10/10 03:36:39;;;;;;;10.32;4.90;;;;;;;3.07;100.00;98649.28;4156110;28;20043;-70
2022/10/10 03:38:39;;;;;;;6.30;4.43;;;;;;;3.11;100.00;98649.44;4155653;28;20132;-70
2022/10/10 03:40:42;;;;;;;7.68;4.57;;;;;;;3.13;100.00;98649.09;4157066;28;20115;-71
2022/10/10 03:42:42;;;;;;;7.25;4.20;;;;;;;3.16;100.00;98649.28;4158337;28;20065;-70
2022/10/10 03:44:42;;;;;;;7.60;4.90;;;;;;;3.17;100.00;98645.41;4157667;28;20609;-70
2022/10/10 03:46:43;;;;;;;6.25;5.00;;;;;;;3.25;100.00;98643.78;4158251;28;20136;-70
2022/10/10 03:48:43;;;;;;;10.63;5.32;;;;;;;3.28;100.00;98638.47;4155341;28;20117;-70
2022/10/10 03:50:43;;;;;;;6.78;4.03;;;;;;;3.32;100.00;98642.16;4155940;28;20048;-70
2022/10/10 03:52:44;;;;;;;7.68;4.22;;;;;;;3.33;100.00;98630.09;4155957;28;20045;-70
2022/10/10 03:54:44;;;;;;;8.27;4.65;;;;;;;3.33;100.00;98635.56;4155331;28;20476;-70
2022/10/10 03:56:44;;;;;;;7.00;4.13;;;;;;;3.34;100.00;98631.69;4155813;28;20053;-70
2022/10/10 03:58:45;;;;;;;6.93;4.38;;;;;;;3.37;100.00;98628.28;4156429;28;20052;-70
2022/10/10 04:00:53;;;;;;;7.93;4.70;;;;;;;3.36;100.00;98632.16;4158578;28;20049;-70
2022/10/10 04:02:53;;;;;;;6.50;4.15;;;;;;;3.40;100.00;98631.53;4158158;28;20365;-71
2022/10/10 04:04:54;;;;;;;8.40;4.53;;;;;;;3.42;100.00;98626.53;4155278;28;20045;-71
2022/10/10 04:06:54;;;;;;;11.63;4.40;;;;;;;3.38;100.00;98621.69;4156931;28;20057;-71
2022/10/10 04:08:54;;;;;;;7.57;4.18;;;;;;;3.44;100.00;98627.00;4154062;28;20384;-71
2022/10/10 04:10:55;;;;;;;11.98;4.63;;;;;;;3.51;100.00;98630.03;4155981;28;20046;-71
2022/10/10 04:12:57;;;;;;;5.82;3.97;;;;;;;3.49;100.00;98630.38;4155877;28;20131;-70
2022/10/10 04:14:57;;;;;;;8.47;4.30;;;;;;;3.52;100.00;98634.38;4161543;28;20404;-70
2022/10/10 04:16:58;;;;;;;6.28;4.10;;;;;;;3.51;100.00;98628.09;4162237;28;20136;-70
2022/10/10 04:18:58;;;;;;;7.45;4.13;;;;;;;3.49;100.00;98630.38;4159394;28;20084;-70
2022/10/10 04:21:03;;;;;;;11.25;4.40;;;;;;;3.48;100.00;98634.22;4156914;28;20044;-70
2022/10/10 04:23:03;;;;;;;6.07;4.28;;;;;;;3.45;100.00;98626.66;4157596;28;20048;-70
2022/10/10 04:25:04;;;;;;;8.43;4.57;;;;;;;3.47;100.00;98640.81;4158075;28;20040;-70
2022/10/10 04:27:04;;;;;;;7.57;4.22;;;;;;;3.49;100.00;98640.50;4157944;28;20385;-70
2022/10/10 04:29:05;;;;;;;5.93;3.90;;;;;;;3.49;100.00;98641.31;4157525;28;20106;-70
2022/10/10 04:31:05;;;;;;;6.40;4.35;;;;;;;3.54;100.00;98634.84;4158023;28;20053;-70
2022/10/10 04:33:06;;;;;;;5.38;3.90;;;;;;;3.57;100.00;98628.72;4157869;28;20050;-70
2022/10/10 04:35:06;;;;;;;6.15;4.10;;;;;;;3.50;100.00;98640.16;4157494;28;20416;-70
2022/10/10 04:37:07;;;;;;;9.05;4.22;;;;;;;3.49;100.00;98644.03;4160663;28;20111;-70
2022/10/10 04:39:08;;;;;;;6.97;5.13;;;;;;;3.45;100.00;98643.06;4156903;28;20050;-70
2022/10/10 04:41:08;;;;;;;5.78;3.50;;;;;;;3.45;100.00;98651.28;4157064;28;20044;-70
2022/10/10 04:43:08;;;;;;;8.40;4.32;;;;;;;3.38;100.00;98634.56;4157771;28;20041;-70
2022/10/10 04:45:09;;;;;;;8.27;4.18;;;;;;;3.38;100.00;98629.09;4159384;28;20076;-70
2022/10/10 04:47:09;;;;;;;6.28;4.40;;;;;;;3.37;100.00;98633.75;4158068;28;20049;-70
2022/10/10 04:49:10;;;;;;;5.60;3.85;;;;;;;3.36;100.00;98620.41;4156392;28;20053;-70
2022/10/10 04:51:10;;;;;;;5.28;3.53;;;;;;;3.37;100.00;98624.75;4156897;28;20120;-70
2022/10/10 04:53:11;;;;;;;6.18;4.35;;;;;;;3.35;100.00;98618.81;4158586;28;20453;-70
2022/10/10 04:55:11;;;;;;;5.70;4.03;;;;;;;3.36;100.00;98631.34;4156682;28;20065;-70
2022/10/10 04:57:11;;;;;;;6.80;3.70;;;;;;;3.33;100.00;98627.34;4155820;28;20050;-70
2022/10/10 04:59:12;;;;;;;5.63;3.50;;;;;;;3.34;100.00;98623.50;4158061;28;20045;-70
2022/10/10 05:01:12;;;;;;;7.60;4.00;;;;;;;3.34;100.00;98623.50;4155186;28;20480;-70
2022/10/10 05:03:12;;;;;;;8.30;4.03;;;;;;;3.34;100.00;98626.22;4156902;28;20045;-70
2022/10/10 05:05:13;;;;;;;5.90;3.65;;;;;;;3.36;100.00;98632.16;4106121;28;20760;-71
2022/10/10 05:07:13;;;;;;;6.35;4.32;;;;;;;3.39;100.00;98625.22;4168000;28;20053;-71
2022/10/10 05:09:13;;;;;;;5.97;3.35;;;;;;;3.39;100.00;98630.69;4159119;28;20049;-71
2022/10/10 05:11:14;;;;;;;8.52;3.90;;;;;;;3.40;100.00;98628.78;4157458;28;20398;-71
2022/10/10 05:13:15;;;;;;;7.05;4.63;;;;;;;3.40;100.00;98617.84;4156679;28;20046;-70
2022/10/10 05:15:16;;;;;;;4.72;3.65;;;;;;;3.42;100.00;98623.78;4155343;28;20046;-70
2022/10/10 05:17:16;;;;;;;5.07;3.60;;;;;;;3.42;100.00;98616.38;4153430;28;20517;-70
2022/10/10 05:19:17;;;;;;;6.07;3.78;;;;;;;3.41;100.00;98620.25;4156312;28;20061;-70
2022/10/10 05:21:17;;;;;;;13.70;4.75;;;;;;;3.41;100.00;98619.47;4158765;28;20344;-70
2022/10/10 05:23:17;;;;;;;6.72;4.20;;;;;;;3.38;100.00;98624.44;4159217;28;20484;-70
2022/10/10 05:25:18;;;;;;;8.45;4.70;;;;;;;3.40;100.00;98626.06;4157002;28;20045;-70
2022/10/10 05:27:18;;;;;;;8.32;4.40;;;;;;;3.41;100.00;98628.47;4156048;28;20056;-70
2022/10/10 05:29:19;;;;;;;8.45;4.55;;;;;;;3.43;100.00;98620.72;4157307;28;20207;-70
2022/10/10 05:31:19;;;;;;;8.60;4.30;;;;;;;3.47;100.00;98626.31;4156497;28;20048;-71
2022/10/10 05:33:19;;;;;;;5.97;4.13;;;;;;;3.50;100.00;98629.22;4155685;28;20046;-71
2022/10/10 05:35:20;;;;;;;8.00;4.30;;;;;;;3.51;100.00;98621.81;4159011;28;20152;-70
2022/10/10 05:37:20;;;;;;;6.80;4.25;;;;;;;3.51;100.00;98622.63;4156710;28;20099;-70
2022/10/10 05:39:20;;;;;;;8.00;4.47;;;;;;;3.48;100.00;98614.28;4156664;28;20045;-71
2022/10/10 05:41:21;;;;;;;7.63;4.15;;;;;;;3.44;100.00;98621.53;4155758;28;20042;-71
2022/10/10 05:43:21;;;;;;;7.72;4.47;;;;;;;3.42;100.00;98627.31;4155012;28;20482;-70
2022/10/10 05:45:21;;;;;;;6.63;4.55;;;;;;;3.38;100.00;98618.16;4157456;28;20087;-70
2022/10/10 05:47:22;;;;;;;6.80;4.68;;;;;;;3.34;100.00;98625.41;4157529;28;20042;-71
2022/10/10 05:49:23;;;;;;;6.05;4.35;;;;;;;3.31;100.00;98626.88;4157112;28;20317;-71
2022/10/10 05:51:23;;;;;;;6.80;4.63;;;;;;;3.31;100.00;98621.41;4158304;28;20037;-71
2022/10/10 05:53:26;;;;;;;9.35;4.68;;;;;;;3.24;100.00;98633.97;4156418;28;20474;-71
2022/10/10 05:55:26;;;;;;;10.05;5.10;;;;;;;3.21;100.00;98623.69;4155692;28;20139;-71
2022/10/10 05:57:27;;;;;;;13.00;5.60;;;;;;;3.19;100.00;98632.22;4156264;28;20532;-70
2022/10/10 05:59:28;;;;;;;7.28;5.25;;;;;;;3.18;100.00;98632.53;4157185;28;20049;-70
2022/10/10 06:01:28;;;;;;;16.48;5.40;;;;;;;3.15;100.00;98631.28;4161312;28;20393;-71
2022/10/10 06:03:29;;;;;;;6.78;4.68;;;;;;;3.13;100.00;98633.50;4161415;28;20068;-71
2022/10/10 06:05:30;;;;;;;6.32;4.22;;;;;;;3.13;100.00;98635.44;4158377;28;20045;-71
2022/10/10 06:07:30;;;;;;;7.75;4.30;;;;;;;3.11;100.00;98641.25;4158796;28;20400;-71
2022/10/10 06:09:30;;;;;;;7.68;5.22;;;;;;;3.11;100.00;98627.56;4158933;28;20068;-71
2022/10/10 06:11:31;;;;;;;9.93;4.72;;;;;;;3.11;100.00;98643.97;4156563;28;20755;-71
2022/10/10 06:13:31;;;;;;;7.50;4.85;;;;;;;3.13;100.00;98633.50;4158880;28;20348;-71
2022/10/10 06:15:32;;;;;;;11.68;5.80;;;;;;;3.18;100.00;98638.00;4156822;28;20048;-71
2022/10/10 06:17:32;;;;;;;10.63;5.13;;;;;;;3.19;100.00;98637.69;4157953;28;20041;-71
2022/10/10 06:19:32;;;;;;;9.38;5.25;;;;;;;3.25;100.00;98646.53;4157724;28;20255;-71
2022/10/10 06:21:33;;;;;;;11.77;6.10;;;;;;;3.28;100.00;98635.72;4157135;28;20049;-71
2022/10/10 06:23:33;;;;;;;9.88;6.55;;;;;;;3.28;100.00;98633.00;4158288;28;20937;-71
2022/10/10 06:25:35;;;;;;;8.48;5.32;;;;;;;3.36;100.00;98634.91;4159021;28;20485;-70
2022/10/10 06:27:35;;;;;;;7.63;5.40;;;;;;;3.41;100.00;98635.88;4157680;28;20053;-70
2022/10/10 06:29:36;;;;;;;9.07;5.65;;;;;;;3.43;100.00;98636.34;4158940;28;20107;-70
2022/10/10 06:31:38;;;;;;;10.75;6.03;;;;;;;3.47;100.00;98640.81;4159175;28;20040;-71
2022/10/10 06:33:42;;;;;;;10.43;6.20;;;;;;;3.50;100.00;98636.63;4158865;28;20076;-71
2022/10/10 06:35:43;;;;;;;12.13;7.32;;;;;;;3.56;100.00;98643.53;4156123;28;20069;-71
2022/10/10 06:37:44;;;;;;;12.53;7.00;;;;;;;3.58;100.00;98642.06;4157974;28;20382;-71
2022/10/10 06:39:44;;;;;;;12.68;7.00;;;;;;;3.64;100.00;98651.72;4156978;28;20053;-71
2022/10/10 06:41:44;;;;;;;12.32;6.43;;;;;;;3.66;100.00;98646.72;4158628;28;20049;-71
2022/10/10 06:43:45;;;;;;;15.90;7.32;;;;;;;3.67;100.00;98640.09;4156922;28;20128;-71
2022/10/10 06:45:48;;;;;;;25.05;10.15;;;;;;;3.76;100.00;98647.47;4156169;28;20091;-71
2022/10/10 06:47:49;;;;;;;20.02;9.13;;;;;;;3.84;100.00;98652.09;4158051;28;20508;-71
2022/10/10 06:49:49;;;;;;;21.13;7.30;;;;;;;3.94;100.00;98640.78;4157553;28;20061;-71
2022/10/10 06:51:49;;;;;;;13.98;6.47;;;;;;;3.97;100.00;98651.06;4158961;28;20055;-71
2022/10/10 06:53:50;;;;;;;15.40;6.13;;;;;;;4.00;100.00;98649.63;4160158;28;20493;-71
2022/10/10 06:55:51;;;;;;;13.18;6.93;;;;;;;4.03;100.00;98648.94;4156835;28;20049;-71
2022/10/10 06:57:52;;;;;;;12.55;7.60;;;;;;;4.08;100.00;98652.31;4159314;28;20539;-70
2022/10/10 06:59:53;;;;;;;12.95;7.15;;;;;;;4.12;100.00;98650.50;4154873;28;20519;-70
2022/10/10 07:01:53;;;;;;;13.93;5.80;;;;;;;4.19;100.00;98647.22;4155909;28;20148;-71
2022/10/10 07:03:53;;;;;;;26.30;8.27;;;;;;;4.31;100.00;98654.75;4158985;28;20092;-71
2022/10/10 07:05:57;;;;;;;15.88;6.90;;;;;;;4.38;100.00;98655.81;4154676;28;20450;-71
2022/10/10 07:07:57;;;;;;;17.17;6.90;;;;;;;4.41;100.00;98652.41;4155467;28;20669;-71
2022/10/10 07:09:57;;;;;;;11.95;7.05;;;;;;;4.46;100.00;98654.13;4155605;28;20037;-71
2022/10/10 07:11:58;;;;;;;13.98;8.57;;;;;;;4.47;100.00;98644.81;4157016;28;20095;-71
2022/10/10 07:13:58;;;;;;;13.32;7.97;;;;;;;4.55;100.00;98651.34;4155389;28;20649;-71
2022/10/10 07:15:59;;;;;;;10.00;7.88;;;;;;;4.64;100.00;98652.91;4155865;28;20034;-71
2022/10/10 07:17:59;;;;;;;11.98;7.55;;;;;;;4.73;100.00;98650.88;4159931;28;20392;-71
2022/10/10 07:20:00;;;;;;;13.13;8.70;;;;;;;4.84;100.00;98655.94;4154843;28;20045;-70
2022/10/10 07:22:00;;;;;;;12.55;8.30;;;;;;;4.92;100.00;98646.84;4157014;28;20099;-71
2022/10/10 07:24:00;;;;;;;11.75;7.97;;;;;;;4.98;100.00;98649.06;4156099;28;20045;-71
2022/10/10 07:26:07;;;;;;;9.40;7.20;;;;;;;5.08;100.00;98648.63;4160656;28;20539;-71
2022/10/10 07:28:09;;;;;;;8.95;6.68;;;;;;;5.11;100.00;98646.34;4154621;28;20031;-71
2022/10/10 07:30:10;;;;;;;10.48;6.15;;;;;;;5.16;100.00;98649.69;4155421;28;20064;-71
2022/10/10 07:32:10;;;;;;;11.48;7.50;;;;;;;5.20;100.00;98642.38;4159756;28;20488;-71
2022/10/10 07:34:10;;;;;;;9.27;6.13;;;;;;;5.28;100.00;98643.41;4156228;28;20025;-71
2022/10/10 07:36:11;;;;;;;8.85;6.45;;;;;;;5.36;100.00;98639.78;4155401;28;20806;-70
2022/10/10 07:38:11;;;;;;;10.80;7.45;;;;;;;5.52;100.00;98635.25;4157279;28;20033;-71
2022/10/10 07:40:11;;;;;;;15.55;6.85;;;;;;;5.63;100.00;98643.84;4155929;28;20033;-70
2022/10/10 07:42:12;;;;;;;8.75;6.18;;;;;;;5.71;100.00;98645.69;4154820;28;20550;-71
2022/10/10 07:44:12;;;;;;;15.40;6.95;;;;;;;5.80;99.52;98651.88;4155491;28;20370;-71
2022/10/10 07:46:18;;;;;;;10.07;5.93;;;;;;;5.84;98.82;98635.50;4155979;28;20026;-71
2022/10/10 07:48:18;;;;;;;8.73;5.75;;;;;;;5.90;97.81;98643.22;4162288;28;20037;-71
2022/10/10 07:50:19;;;;;;;8.55;5.50;;;;;;;5.95;98.77;98644.91;4155693;28;20033;-71
2022/10/10 07:52:19;;;;;;;10.25;6.25;;;;;;;6.05;99.01;98644.47;4157200;28;20029;-71
2022/10/10 07:54:19;;;;;;;10.73;6.50;;;;;;;6.25;100.00;98636.44;4159100;28;20483;-71
2022/10/10 07:56:20;;;;;;;11.50;6.18;;;;;;;6.31;100.00;98640.56;4159398;28;20036;-71
2022/10/10 07:58:20;;;;;;;9.20;6.28;;;;;;;6.36;100.00;98627.34;4154576;28;20080;-70
2022/10/10 08:00:20;;;;;;;10.25;6.15;;;;;;;6.41;100.00;98618.88;4155761;28;20085;-70
2022/10/10 08:02:20;;;;;;;10.05;5.70;;;;;;;6.49;100.00;98625.41;4156570;28;20418;-70
2022/10/10 08:04:21;;;;;;;12.18;6.85;;;;;;;6.55;99.85;98623.22;4159346;28;20128;-70
2022/10/10 08:06:21;;;;;;;6.82;5.07;;;;;;;6.58;99.75;98609.56;4158877;28;20049;-71
2022/10/10 08:08:22;;;;;;;9.80;5.82;;;;;;;6.68;99.75;98611.81;4155918;28;20049;-71
2022/10/10 08:10:22;;;;;;;7.72;4.93;;;;;;;6.80;100.00;98618.44;4158730;28;20041;-71
2022/10/10 08:12:23;;;;;;;11.27;5.45;;;;;;;6.94;100.00;98613.31;4155752;28;20115;-71
2022/10/10 08:14:23;;;;;;;9.20;4.93;;;;;;;7.07;100.00;98616.84;4160875;28;20375;-71
2022/10/10 08:16:23;;;;;;;6.70;4.85;;;;;;;7.22;100.00;98616.88;4154064;28;20132;-71
2022/10/10 08:18:24;;;;;;;6.75;4.57;;;;;;;7.41;100.00;98612.63;4156964;28;20130;-71
2022/10/10 08:20:24;;;;;;;10.13;4.97;;;;;;;7.55;100.00;98626.78;4156388;28;20085;-71
2022/10/10 08:22:24;;;;;;;7.53;5.07;;;;;;;7.68;100.00;98617.25;4154609;28;20050;-71
2022/10/10 08:24:25;;;;;;;8.63;4.82;;;;;;;7.75;98.68;98622.94;4155228;28;21580;-71
2022/10/10 08:26:25;;;;;;;9.85;5.20;;;;;;;7.88;99.06;98620.91;4155323;28;20053;-71
2022/10/10 08:28:27;;;;;;;8.57;5.75;;;;;;;7.99;98.71;98613.69;4155025;28;20051;-71
2022/10/10 08:30:27;;;;;;;10.85;5.05;;;;;;;8.17;99.04;98619.59;4157502;28;20569;-71
2022/10/10 08:32:28;;;;;;;8.20;5.25;;;;;;;8.35;97.93;98620.03;4155897;28;20069;-71
2022/10/10 08:34:28;;;;;;;6.75;4.35;;;;;;;8.44;96.80;98620.66;4159008;28;20076;-71
2022/10/10 08:36:28;;;;;;;7.72;5.40;;;;;;;8.54;97.22;98622.84;4156890;28;20513;-71
2022/10/10 08:38:28;;;;;;;15.57;5.32;;;;;;;8.61;97.76;98622.22;4154090;28;20045;-71
2022/10/10 08:40:29;;;;;;;8.55;5.03;;;;;;;8.66;97.68;98625.47;4154710;28;20038;-71
2022/10/10 08:42:37;;;;;;;7.53;5.18;;;;;;;8.76;97.20;98623.28;4155349;28;20041;-71
2022/10/10 08:44:45;;;;;;;9.55;5.60;;;;;;;8.80;97.31;98616.69;4153731;28;20382;-71
2022/10/10 08:46:49;;;;;;;9.65;5.20;;;;;;;8.91;96.43;98608.63;4155415;28;20489;-71
2022/10/10 08:48:51;;;;;;;11.77;5.55;;;;;;;8.98;95.95;98609.56;4158943;28;20393;-71
2022/10/10 08:51:00;;;;;;;11.32;6.20;;;;;;;9.09;95.57;98606.22;4156714;28;20152;-71
2022/10/10 08:53:04;;;;;;;9.45;5.57;;;;;;;9.19;94.72;98603.69;4155913;28;20451;-70
2022/10/10 08:55:30;;;;;;;9.75;5.68;;;;;;;9.27;94.19;98602.66;4154172;28;20053;-70
2022/10/10 08:58:09;;;;;;;9.98;5.90;;;;;;;9.41;93.55;98604.06;4156981;28;20509;-70
2022/10/10 09:00:16;;;;;;;8.57;5.53;;;;;;;9.52;93.63;98607.81;4152564;28;20041;-70
2022/10/10 09:02:37;;;;;;;8.90;5.32;;;;;;;9.77;92.81;98600.75;4154494;28;20385;-71
2022/10/10 09:04:38;;;;;;;8.20;5.47;;;;;;;9.87;92.32;98612.34;4156789;28;20049;-71
2022/10/10 09:07:00;;;;;;;10.32;5.03;;;;;;;9.93;91.88;98603.38;4158933;28;20393;-71
2022/10/10 09:09:15;;;;;;;8.85;5.45;;;;;;;10.03;90.68;98608.28;4153854;28;20462;-71
2022/10/10 09:11:38;;;;;;;10.05;5.20;;;;;;;10.12;90.15;98600.50;4155109;28;20054;-71
2022/10/10 09:13:53;;;;;;;10.98;5.90;;;;;;;10.14;90.71;98600.94;4154137;28;20489;-71
2022/10/10 09:16:00;;;;;;;10.80;6.93;;;;;;;10.14;91.36;98594.59;4154576;28;20104;-71
2022/10/10 09:18:22;;;;;;;12.65;7.00;;;;;;;10.19;91.68;98593.50;4156613;28;20042;-71
2022/10/10 09:20:47;;;;;;;9.20;6.43;;;;;;;10.56;89.16;98607.47;4154636;28;20367;-70
2022/10/10 09:22:55;;;;;;;10.23;6.28;;;;;;;10.68;88.59;98608.06;4154529;28;20045;-71
2022/10/10 09:25:05;;;;;;;11.80;5.53;;;;;;;10.75;88.39;98609.31;4158710;28;20045;-71
2022/10/10 09:27:13;;;;;;;8.15;5.70;;;;;;;10.77;87.89;98602.25;4158648;28;20492;-71
2022/10/10 09:29:33;;;;;;;10.20;5.53;;;;;;;10.94;86.81;98601.66;4154063;28;20140;-71
2022/10/10 09:31:39;;;;;;;8.30;5.60;;;;;;;11.00;87.05;98598.53;4155087;28;20049;-70
2022/10/10 09:33:51;;;;;;;9.05;5.40;;;;;;;10.99;87.97;98586.66;4155534;28;20482;-71
2022/10/10 09:35:54;;;;;;;8.38;5.30;;;;;;;11.05;87.71;98595.44;4156237;28;20505;-71
2022/10/10 09:38:18;;;;;;;11.68;5.93;;;;;;;11.10;87.72;98597.88;4158251;28;20386;-71
2022/10/10 09:40:26;;;;;;;7.68;4.75;;;;;;;11.38;86.09;98600.94;4152962;28;20053;-71
2022/10/10 09:42:33;;;;;;;7.95;4.60;;;;;;;11.60;84.76;98595.63;4159575;28;20131;-71